sensor_id;sensor_type;location;lat;lon;timestamp;P1;durP1;ratioP1;P2;durP2;ratioP2
6834;SDS011;3455;42.150;24.734;2022-09-09T00:00:17;13.40;;;12.07;;
6834;SDS011;3455;42.150;24.734;2022-09-09T00:02:49;12.73;;;11.73;;
6834;SDS011;3455;42.150;24.734;2022-09-09T00:05:24;11.30;;;10.70;;
6834;SDS011;3455;42.150;24.734;2022-09-09T00:07:57;12.82;;;11.43;;
6834;SDS011;3455;42.150;24.734;2022-09-09T00:10:30;12.97;;;11.70;;
6834;SDS011;3455;42.150;24.734;2022-09-09T00:13:02;13.85;;;12.88;;
6834;SDS011;3455;42.150;24.734;2022-09-09T00:15:42;13.00;;;11.23;;
6834;SDS011;3455;42.150;24.734;2022-09-09T00:18:20;12.80;;;11.87;;
6834;SDS011;3455;42.150;24.734;2022-09-09T00:20:52;12.77;;;11.53;;
6834;SDS011;3455;42.150;24.734;2022-09-09T00:23:24;12.60;;;11.50;;
6834;SDS011;3455;42.150;24.734;2022-09-09T00:25:56;12.87;;;11.40;;
6834;SDS011;3455;42.150;24.734;2022-09-09T00:28:29;11.48;;;10.38;;
6834;SDS011;3455;42.150;24.734;2022-09-09T00:30:59;12.23;;;11.07;;
6834;SDS011;3455;42.150;24.734;2022-09-09T00:33:29;13.07;;;11.93;;
6834;SDS011;3455;42.150;24.734;2022-09-09T00:35:57;12.83;;;11.77;;
6834;SDS011;3455;42.150;24.734;2022-09-09T00:38:27;12.83;;;11.73;;
6834;SDS011;3455;42.150;24.734;2022-09-09T00:41:01;13.10;;;12.07;;
6834;SDS011;3455;42.150;24.734;2022-09-09T00:43:33;12.65;;;11.50;;
6834;SDS011;3455;42.150;24.734;2022-09-09T00:46:18;13.40;;;12.13;;
6834;SDS011;3455;42.150;24.734;2022-09-09T00:49:02;12.63;;;11.57;;
6834;SDS011;3455;42.150;24.734;2022-09-09T00:51:44;13.10;;;12.10;;
6834;SDS011;3455;42.150;24.734;2022-09-09T00:54:25;12.87;;;11.97;;
6834;SDS011;3455;42.150;24.734;2022-09-09T00:57:03;14.55;;;13.02;;
6834;SDS011;3455;42.150;24.734;2022-09-09T00:59:46;13.20;;;12.07;;
6834;SDS011;3455;42.150;24.734;2022-09-09T01:02:17;13.43;;;12.30;;
6834;SDS011;3455;42.150;24.734;2022-09-09T01:04:54;13.38;;;12.32;;
6834;SDS011;3455;42.150;24.734;2022-09-09T01:07:27;13.67;;;12.30;;
6834;SDS011;3455;42.150;24.734;2022-09-09T01:09:55;12.90;;;11.80;;
6834;SDS011;3455;42.150;24.734;2022-09-09T01:12:28;13.37;;;12.00;;
6834;SDS011;3455;42.150;24.734;2022-09-09T01:15:03;12.60;;;11.03;;
6834;SDS011;3455;42.150;24.734;2022-09-09T01:17:44;14.00;;;12.60;;
6834;SDS011;3455;42.150;24.734;2022-09-09T01:20:19;12.07;;;11.23;;
6834;SDS011;3455;42.150;24.734;2022-09-09T01:22:56;14.18;;;12.80;;
6834;SDS011;3455;42.150;24.734;2022-09-09T01:28:43;17.57;;;12.40;;
6834;SDS011;3455;42.150;24.734;2022-09-09T01:31:14;12.55;;;11.55;;
6834;SDS011;3455;42.150;24.734;2022-09-09T01:33:44;13.13;;;12.05;;
6834;SDS011;3455;42.150;24.734;2022-09-09T01:36:12;14.23;;;12.60;;
6834;SDS011;3455;42.150;24.734;2022-09-09T01:38:44;13.83;;;12.37;;
6834;SDS011;3455;42.150;24.734;2022-09-09T01:41:11;14.33;;;13.07;;
6834;SDS011;3455;42.150;24.734;2022-09-09T01:43:38;13.70;;;11.60;;
6834;SDS011;3455;42.150;24.734;2022-09-09T01:46:06;12.88;;;11.43;;
6834;SDS011;3455;42.150;24.734;2022-09-09T01:48:34;12.52;;;11.57;;
6834;SDS011;3455;42.150;24.734;2022-09-09T01:51:00;12.47;;;11.23;;
6834;SDS011;3455;42.150;24.734;2022-09-09T01:53:27;13.50;;;12.40;;
6834;SDS011;3455;42.150;24.734;2022-09-09T01:55:58;13.60;;;12.20;;
6834;SDS011;3455;42.150;24.734;2022-09-09T01:58:34;13.77;;;12.73;;
6834;SDS011;3455;42.150;24.734;2022-09-09T02:01:12;13.40;;;12.30;;
6834;SDS011;3455;42.150;24.734;2022-09-09T02:03:50;13.30;;;12.33;;
6834;SDS011;3455;42.150;24.734;2022-09-09T02:06:22;14.13;;;12.53;;
6834;SDS011;3455;42.150;24.734;2022-09-09T02:08:55;14.37;;;12.83;;
6834;SDS011;3455;42.150;24.734;2022-09-09T02:11:25;15.00;;;13.67;;
6834;SDS011;3455;42.150;24.734;2022-09-09T02:13:54;14.20;;;12.93;;
6834;SDS011;3455;42.150;24.734;2022-09-09T02:16:28;14.03;;;12.50;;
6834;SDS011;3455;42.150;24.734;2022-09-09T02:19:00;15.23;;;13.00;;
6834;SDS011;3455;42.150;24.734;2022-09-09T02:21:32;13.60;;;12.57;;
6834;SDS011;3455;42.150;24.734;2022-09-09T02:24:02;15.07;;;13.60;;
6834;SDS011;3455;42.150;24.734;2022-09-09T02:26:33;12.83;;;11.73;;
6834;SDS011;3455;42.150;24.734;2022-09-09T02:29:03;15.00;;;12.23;;
6834;SDS011;3455;42.150;24.734;2022-09-09T02:31:35;12.93;;;11.83;;
6834;SDS011;3455;42.150;24.734;2022-09-09T02:34:04;13.43;;;12.53;;
6834;SDS011;3455;42.150;24.734;2022-09-09T02:36:36;13.87;;;12.47;;
6834;SDS011;3455;42.150;24.734;2022-09-09T02:39:05;13.73;;;12.53;;
6834;SDS011;3455;42.150;24.734;2022-09-09T02:41:35;14.93;;;13.47;;
6834;SDS011;3455;42.150;24.734;2022-09-09T02:44:05;14.97;;;13.50;;
6834;SDS011;3455;42.150;24.734;2022-09-09T02:46:40;14.67;;;13.27;;
6834;SDS011;3455;42.150;24.734;2022-09-09T02:49:19;15.03;;;13.50;;
6834;SDS011;3455;42.150;24.734;2022-09-09T02:51:57;14.83;;;13.50;;
6834;SDS011;3455;42.150;24.734;2022-09-09T02:54:27;15.80;;;13.40;;
6834;SDS011;3455;42.150;24.734;2022-09-09T02:56:58;17.37;;;13.30;;
6834;SDS011;3455;42.150;24.734;2022-09-09T02:59:30;13.70;;;12.30;;
6834;SDS011;3455;42.150;24.734;2022-09-09T03:01:58;14.70;;;13.33;;
6834;SDS011;3455;42.150;24.734;2022-09-09T03:04:26;14.03;;;12.57;;
6834;SDS011;3455;42.150;24.734;2022-09-09T03:06:53;13.97;;;12.87;;
6834;SDS011;3455;42.150;24.734;2022-09-09T03:09:19;13.43;;;12.40;;
6834;SDS011;3455;42.150;24.734;2022-09-09T03:11:46;12.43;;;11.53;;
6834;SDS011;3455;42.150;24.734;2022-09-09T03:14:14;13.53;;;12.33;;
6834;SDS011;3455;42.150;24.734;2022-09-09T03:16:41;14.90;;;13.60;;
6834;SDS011;3455;42.150;24.734;2022-09-09T03:19:09;14.47;;;13.27;;
6834;SDS011;3455;42.150;24.734;2022-09-09T03:21:36;13.87;;;12.83;;
6834;SDS011;3455;42.150;24.734;2022-09-09T03:24:03;14.23;;;13.03;;
6834;SDS011;3455;42.150;24.734;2022-09-09T03:26:31;15.33;;;13.93;;
6834;SDS011;3455;42.150;24.734;2022-09-09T03:28:58;16.77;;;14.00;;
6834;SDS011;3455;42.150;24.734;2022-09-09T03:31:26;15.10;;;13.00;;
6834;SDS011;3455;42.150;24.734;2022-09-09T03:33:55;17.67;;;14.20;;
6834;SDS011;3455;42.150;24.734;2022-09-09T03:36:24;14.30;;;13.17;;
6834;SDS011;3455;42.150;24.734;2022-09-09T03:38:53;13.93;;;12.97;;
6834;SDS011;3455;42.150;24.734;2022-09-09T03:41:20;19.40;;;12.97;;
6834;SDS011;3455;42.150;24.734;2022-09-09T03:43:48;15.73;;;14.10;;
6834;SDS011;3455;42.150;24.734;2022-09-09T03:46:15;14.97;;;13.63;;
6834;SDS011;3455;42.150;24.734;2022-09-09T03:48:42;17.83;;;13.40;;
6834;SDS011;3455;42.150;24.734;2022-09-09T03:51:09;16.20;;;14.90;;
6834;SDS011;3455;42.150;24.734;2022-09-09T03:53:37;16.33;;;14.70;;
6834;SDS011;3455;42.150;24.734;2022-09-09T03:56:04;15.37;;;13.57;;
6834;SDS011;3455;42.150;24.734;2022-09-09T03:58:32;16.10;;;14.70;;
6834;SDS011;3455;42.150;24.734;2022-09-09T04:00:59;16.10;;;14.37;;
6834;SDS011;3455;42.150;24.734;2022-09-09T04:03:28;16.33;;;14.67;;
6834;SDS011;3455;42.150;24.734;2022-09-09T04:05:56;23.70;;;15.50;;
6834;SDS011;3455;42.150;24.734;2022-09-09T04:08:24;24.17;;;15.67;;
6834;SDS011;3455;42.150;24.734;2022-09-09T04:10:53;16.43;;;15.00;;
6834;SDS011;3455;42.150;24.734;2022-09-09T04:13:23;17.77;;;16.03;;
6834;SDS011;3455;42.150;24.734;2022-09-09T04:15:50;17.23;;;15.57;;
6834;SDS011;3455;42.150;24.734;2022-09-09T04:18:18;17.37;;;15.87;;
6834;SDS011;3455;42.150;24.734;2022-09-09T04:20:45;16.80;;;15.07;;
6834;SDS011;3455;42.150;24.734;2022-09-09T04:23:13;17.23;;;15.13;;
6834;SDS011;3455;42.150;24.734;2022-09-09T04:25:43;17.47;;;15.80;;
6834;SDS011;3455;42.150;24.734;2022-09-09T04:28:12;21.37;;;15.67;;
6834;SDS011;3455;42.150;24.734;2022-09-09T04:30:39;17.00;;;15.40;;
6834;SDS011;3455;42.150;24.734;2022-09-09T04:33:06;20.17;;;15.00;;
6834;SDS011;3455;42.150;24.734;2022-09-09T04:35:34;16.80;;;15.10;;
6834;SDS011;3455;42.150;24.734;2022-09-09T04:38:02;17.57;;;14.93;;
6834;SDS011;3455;42.150;24.734;2022-09-09T04:40:29;14.93;;;13.40;;
6834;SDS011;3455;42.150;24.734;2022-09-09T04:42:57;21.17;;;14.73;;
6834;SDS011;3455;42.150;24.734;2022-09-09T04:45:25;17.93;;;13.73;;
6834;SDS011;3455;42.150;24.734;2022-09-09T04:47:52;17.17;;;13.73;;
6834;SDS011;3455;42.150;24.734;2022-09-09T04:50:20;13.63;;;12.23;;
6834;SDS011;3455;42.150;24.734;2022-09-09T04:52:47;17.33;;;12.60;;
6834;SDS011;3455;42.150;24.734;2022-09-09T04:55:14;18.17;;;11.97;;
6834;SDS011;3455;42.150;24.734;2022-09-09T04:57:41;14.13;;;11.70;;
6834;SDS011;3455;42.150;24.734;2022-09-09T05:00:08;14.13;;;12.87;;
6834;SDS011;3455;42.150;24.734;2022-09-09T05:02:38;12.77;;;11.60;;
6834;SDS011;3455;42.150;24.734;2022-09-09T05:05:05;12.07;;;10.97;;
6834;SDS011;3455;42.150;24.734;2022-09-09T05:07:33;12.63;;;11.43;;
6834;SDS011;3455;42.150;24.734;2022-09-09T05:09:59;11.57;;;10.40;;
6834;SDS011;3455;42.150;24.734;2022-09-09T05:12:26;10.97;;;9.73;;
6834;SDS011;3455;42.150;24.734;2022-09-09T05:14:53;15.03;;;10.77;;
6834;SDS011;3455;42.150;24.734;2022-09-09T05:17:20;11.40;;;10.27;;
6834;SDS011;3455;42.150;24.734;2022-09-09T05:19:48;11.70;;;10.67;;
6834;SDS011;3455;42.150;24.734;2022-09-09T05:22:18;11.83;;;10.50;;
6834;SDS011;3455;42.150;24.734;2022-09-09T05:24:45;12.33;;;10.80;;
6834;SDS011;3455;42.150;24.734;2022-09-09T05:27:12;11.00;;;10.10;;
6834;SDS011;3455;42.150;24.734;2022-09-09T05:29:39;11.35;;;10.18;;
6834;SDS011;3455;42.150;24.734;2022-09-09T05:32:06;14.27;;;10.70;;
6834;SDS011;3455;42.150;24.734;2022-09-09T05:34:33;10.73;;;9.90;;
6834;SDS011;3455;42.150;24.734;2022-09-09T05:37:01;16.65;;;9.80;;
6834;SDS011;3455;42.150;24.734;2022-09-09T05:39:29;11.32;;;8.27;;
6834;SDS011;3455;42.150;24.734;2022-09-09T05:41:55;15.48;;;8.20;;
6834;SDS011;3455;42.150;24.734;2022-09-09T05:44:22;9.50;;;8.07;;
6834;SDS011;3455;42.150;24.734;2022-09-09T05:46:52;11.35;;;7.93;;
6834;SDS011;3455;42.150;24.734;2022-09-09T05:49:19;9.65;;;7.75;;
6834;SDS011;3455;42.150;24.734;2022-09-09T05:51:46;14.00;;;7.53;;
6834;SDS011;3455;42.150;24.734;2022-09-09T05:54:14;8.50;;;7.57;;
6834;SDS011;3455;42.150;24.734;2022-09-09T05:56:41;8.15;;;7.32;;
6834;SDS011;3455;42.150;24.734;2022-09-09T05:59:08;9.82;;;6.75;;
6834;SDS011;3455;42.150;24.734;2022-09-09T06:01:35;11.35;;;6.30;;
6834;SDS011;3455;42.150;24.734;2022-09-09T06:04:05;7.68;;;7.03;;
6834;SDS011;3455;42.150;24.734;2022-09-09T06:06:33;8.68;;;6.80;;
6834;SDS011;3455;42.150;24.734;2022-09-09T06:09:02;5.95;;;5.38;;
6834;SDS011;3455;42.150;24.734;2022-09-09T06:11:33;9.98;;;5.90;;
6834;SDS011;3455;42.150;24.734;2022-09-09T06:14:01;9.95;;;6.00;;
6834;SDS011;3455;42.150;24.734;2022-09-09T06:16:29;7.93;;;5.50;;
6834;SDS011;3455;42.150;24.734;2022-09-09T06:18:58;6.63;;;5.53;;
6834;SDS011;3455;42.150;24.734;2022-09-09T06:21:25;8.85;;;5.45;;
6834;SDS011;3455;42.150;24.734;2022-09-09T06:23:53;6.55;;;5.38;;
6834;SDS011;3455;42.150;24.734;2022-09-09T06:26:20;7.63;;;5.47;;
6834;SDS011;3455;42.150;24.734;2022-09-09T06:28:51;14.65;;;5.70;;
6834;SDS011;3455;42.150;24.734;2022-09-09T06:31:20;7.07;;;4.88;;
6834;SDS011;3455;42.150;24.734;2022-09-09T06:33:48;11.77;;;5.80;;
6834;SDS011;3455;42.150;24.734;2022-09-09T06:36:16;9.45;;;5.72;;
6834;SDS011;3455;42.150;24.734;2022-09-09T06:38:44;9.70;;;5.40;;
6834;SDS011;3455;42.150;24.734;2022-09-09T06:41:12;8.30;;;7.45;;
6834;SDS011;3455;42.150;24.734;2022-09-09T06:43:41;11.48;;;5.85;;
6834;SDS011;3455;42.150;24.734;2022-09-09T06:46:10;7.57;;;6.03;;
6834;SDS011;3455;42.150;24.734;2022-09-09T06:48:38;7.47;;;6.40;;
6834;SDS011;3455;42.150;24.734;2022-09-09T06:51:07;20.10;;;7.00;;
6834;SDS011;3455;42.150;24.734;2022-09-09T06:53:36;20.48;;;6.38;;
6834;SDS011;3455;42.150;24.734;2022-09-09T06:56:17;13.13;;;6.70;;
6834;SDS011;3455;42.150;24.734;2022-09-09T06:58:48;8.43;;;6.45;;
6834;SDS011;3455;42.150;24.734;2022-09-09T07:01:19;7.93;;;6.32;;
6834;SDS011;3455;42.150;24.734;2022-09-09T07:03:48;15.95;;;7.78;;
6834;SDS011;3455;42.150;24.734;2022-09-09T07:06:17;14.75;;;8.00;;
6834;SDS011;3455;42.150;24.734;2022-09-09T07:08:48;7.45;;;6.68;;
6834;SDS011;3455;42.150;24.734;2022-09-09T07:11:16;9.30;;;6.20;;
6834;SDS011;3455;42.150;24.734;2022-09-09T07:13:45;8.60;;;6.43;;
6834;SDS011;3455;42.150;24.734;2022-09-09T07:16:15;7.50;;;6.72;;
6834;SDS011;3455;42.150;24.734;2022-09-09T07:18:44;8.38;;;5.97;;
6834;SDS011;3455;42.150;24.734;2022-09-09T07:21:11;7.13;;;6.40;;
6834;SDS011;3455;42.150;24.734;2022-09-09T07:23:40;6.75;;;6.07;;
6834;SDS011;3455;42.150;24.734;2022-09-09T07:26:08;6.82;;;5.82;;
6834;SDS011;3455;42.150;24.734;2022-09-09T07:28:35;9.25;;;5.80;;
6834;SDS011;3455;42.150;24.734;2022-09-09T07:31:03;8.38;;;5.20;;
6834;SDS011;3455;42.150;24.734;2022-09-09T07:33:31;6.22;;;5.75;;
6834;SDS011;3455;42.150;24.734;2022-09-09T07:36:04;6.75;;;5.53;;
6834;SDS011;3455;42.150;24.734;2022-09-09T07:38:37;8.52;;;5.90;;
6834;SDS011;3455;42.150;24.734;2022-09-09T07:41:05;5.47;;;5.05;;
6834;SDS011;3455;42.150;24.734;2022-09-09T07:43:36;11.45;;;4.85;;
6834;SDS011;3455;42.150;24.734;2022-09-09T07:46:03;5.70;;;5.18;;
6834;SDS011;3455;42.150;24.734;2022-09-09T07:48:31;5.93;;;4.85;;
6834;SDS011;3455;42.150;24.734;2022-09-09T07:51:06;8.95;;;5.00;;
6834;SDS011;3455;42.150;24.734;2022-09-09T07:53:35;5.65;;;5.25;;
6834;SDS011;3455;42.150;24.734;2022-09-09T07:56:04;10.10;;;4.57;;
6834;SDS011;3455;42.150;24.734;2022-09-09T07:58:32;6.43;;;4.00;;
6834;SDS011;3455;42.150;24.734;2022-09-09T08:00:59;7.05;;;4.43;;
6834;SDS011;3455;42.150;24.734;2022-09-09T08:03:25;4.55;;;4.18;;
6834;SDS011;3455;42.150;24.734;2022-09-09T08:05:52;8.90;;;5.13;;
6834;SDS011;3455;42.150;24.734;2022-09-09T08:08:20;6.07;;;4.25;;
6834;SDS011;3455;42.150;24.734;2022-09-09T08:10:47;9.88;;;4.57;;
6834;SDS011;3455;42.150;24.734;2022-09-09T08:13:14;4.68;;;4.18;;
6834;SDS011;3455;42.150;24.734;2022-09-09T08:15:42;5.53;;;4.10;;
6834;SDS011;3455;42.150;24.734;2022-09-09T08:18:09;6.97;;;3.92;;
6834;SDS011;3455;42.150;24.734;2022-09-09T08:20:36;4.85;;;4.45;;
6834;SDS011;3455;42.150;24.734;2022-09-09T08:23:03;4.18;;;3.80;;
6834;SDS011;3455;42.150;24.734;2022-09-09T08:25:32;6.13;;;4.50;;
6834;SDS011;3455;42.150;24.734;2022-09-09T08:27:59;5.30;;;4.05;;
6834;SDS011;3455;42.150;24.734;2022-09-09T08:30:26;4.13;;;3.72;;
6834;SDS011;3455;42.150;24.734;2022-09-09T08:32:53;4.93;;;3.97;;
6834;SDS011;3455;42.150;24.734;2022-09-09T08:35:20;17.83;;;4.43;;
6834;SDS011;3455;42.150;24.734;2022-09-09T08:37:47;8.73;;;4.45;;
6834;SDS011;3455;42.150;24.734;2022-09-09T08:40:17;4.28;;;3.70;;
6834;SDS011;3455;42.150;24.734;2022-09-09T08:42:54;6.55;;;4.10;;
6834;SDS011;3455;42.150;24.734;2022-09-09T08:45:25;4.72;;;3.97;;
6834;SDS011;3455;42.150;24.734;2022-09-09T08:48:01;4.85;;;4.40;;
6834;SDS011;3455;42.150;24.734;2022-09-09T08:50:36;8.77;;;8.15;;
6834;SDS011;3455;42.150;24.734;2022-09-09T08:53:09;8.32;;;5.47;;
6834;SDS011;3455;42.150;24.734;2022-09-09T08:55:42;4.32;;;3.95;;
6834;SDS011;3455;42.150;24.734;2022-09-09T08:58:15;6.40;;;4.13;;
6834;SDS011;3455;42.150;24.734;2022-09-09T09:00:50;15.90;;;4.78;;
6834;SDS011;3455;42.150;24.734;2022-09-09T09:03:28;7.78;;;4.50;;
6834;SDS011;3455;42.150;24.734;2022-09-09T09:06:04;7.35;;;4.45;;
6834;SDS011;3455;42.150;24.734;2022-09-09T09:08:42;4.70;;;4.05;;
6834;SDS011;3455;42.150;24.734;2022-09-09T09:11:16;4.38;;;4.03;;
6834;SDS011;3455;42.150;24.734;2022-09-09T09:13:45;7.35;;;4.30;;
6834;SDS011;3455;42.150;24.734;2022-09-09T09:16:19;12.27;;;4.60;;
6834;SDS011;3455;42.150;24.734;2022-09-09T09:18:51;6.35;;;4.18;;
6834;SDS011;3455;42.150;24.734;2022-09-09T09:21:21;8.75;;;4.43;;
6834;SDS011;3455;42.150;24.734;2022-09-09T09:23:58;4.22;;;3.92;;
6834;SDS011;3455;42.150;24.734;2022-09-09T09:26:29;6.25;;;4.50;;
6834;SDS011;3455;42.150;24.734;2022-09-09T09:29:00;4.50;;;4.30;;
6834;SDS011;3455;42.150;24.734;2022-09-09T09:31:36;5.75;;;5.20;;
6834;SDS011;3455;42.150;24.734;2022-09-09T09:34:02;6.28;;;5.07;;
6834;SDS011;3455;42.150;24.734;2022-09-09T09:36:33;5.30;;;4.80;;
6834;SDS011;3455;42.150;24.734;2022-09-09T09:39:02;5.43;;;4.57;;
6834;SDS011;3455;42.150;24.734;2022-09-09T09:41:31;5.18;;;4.68;;
6834;SDS011;3455;42.150;24.734;2022-09-09T09:44:02;6.43;;;4.38;;
6834;SDS011;3455;42.150;24.734;2022-09-09T09:46:29;6.05;;;5.45;;
6834;SDS011;3455;42.150;24.734;2022-09-09T09:48:57;5.20;;;4.55;;
6834;SDS011;3455;42.150;24.734;2022-09-09T09:51:25;8.30;;;5.47;;
6834;SDS011;3455;42.150;24.734;2022-09-09T09:53:53;5.82;;;4.47;;
6834;SDS011;3455;42.150;24.734;2022-09-09T09:56:26;7.53;;;5.03;;
6834;SDS011;3455;42.150;24.734;2022-09-09T09:58:55;6.00;;;5.60;;
6834;SDS011;3455;42.150;24.734;2022-09-09T10:01:24;5.50;;;5.10;;
6834;SDS011;3455;42.150;24.734;2022-09-09T10:03:53;7.63;;;5.05;;
6834;SDS011;3455;42.150;24.734;2022-09-09T10:06:29;7.60;;;4.63;;
6834;SDS011;3455;42.150;24.734;2022-09-09T10:08:57;6.00;;;5.10;;
6834;SDS011;3455;42.150;24.734;2022-09-09T10:11:30;13.98;;;5.03;;
6834;SDS011;3455;42.150;24.734;2022-09-09T10:14:11;19.23;;;13.18;;
6834;SDS011;3455;42.150;24.734;2022-09-09T10:16:49;9.93;;;5.35;;
6834;SDS011;3455;42.150;24.734;2022-09-09T10:19:29;5.30;;;4.78;;
6834;SDS011;3455;42.150;24.734;2022-09-09T10:22:11;5.28;;;4.97;;
6834;SDS011;3455;42.150;24.734;2022-09-09T10:25:02;4.93;;;4.53;;
6834;SDS011;3455;42.150;24.734;2022-09-09T10:27:42;5.65;;;4.70;;
6834;SDS011;3455;42.150;24.734;2022-09-09T10:30:21;5.40;;;4.93;;
6834;SDS011;3455;42.150;24.734;2022-09-09T10:32:54;6.22;;;4.97;;
6834;SDS011;3455;42.150;24.734;2022-09-09T10:35:31;9.25;;;5.53;;
6834;SDS011;3455;42.150;24.734;2022-09-09T10:40:59;9.27;;;5.57;;
6834;SDS011;3455;42.150;24.734;2022-09-09T10:43:38;6.30;;;5.22;;
6834;SDS011;3455;42.150;24.734;2022-09-09T10:46:19;6.55;;;5.95;;
6834;SDS011;3455;42.150;24.734;2022-09-09T10:49:01;7.85;;;6.43;;
6834;SDS011;3455;42.150;24.734;2022-09-09T10:51:37;5.90;;;5.28;;
6834;SDS011;3455;42.150;24.734;2022-09-09T10:54:17;5.63;;;5.20;;
6834;SDS011;3455;42.150;24.734;2022-09-09T10:57:03;5.93;;;5.43;;
6834;SDS011;3455;42.150;24.734;2022-09-09T10:59:38;5.80;;;5.30;;
6834;SDS011;3455;42.150;24.734;2022-09-09T11:02:10;5.70;;;5.40;;
6834;SDS011;3455;42.150;24.734;2022-09-09T11:04:44;6.70;;;5.30;;
6834;SDS011;3455;42.150;24.734;2022-09-09T11:07:21;6.38;;;5.65;;
6834;SDS011;3455;42.150;24.734;2022-09-09T11:09:54;8.88;;;5.30;;
6834;SDS011;3455;42.150;24.734;2022-09-09T11:12:27;6.15;;;5.05;;
6834;SDS011;3455;42.150;24.734;2022-09-09T11:14:58;5.25;;;4.75;;
6834;SDS011;3455;42.150;24.734;2022-09-09T11:17:33;5.13;;;4.70;;
6834;SDS011;3455;42.150;24.734;2022-09-09T11:20:10;5.03;;;4.50;;
6834;SDS011;3455;42.150;24.734;2022-09-09T11:22:39;9.45;;;4.78;;
6834;SDS011;3455;42.150;24.734;2022-09-09T11:25:14;7.93;;;4.63;;
6834;SDS011;3455;42.150;24.734;2022-09-09T11:27:45;5.30;;;4.93;;
6834;SDS011;3455;42.150;24.734;2022-09-09T11:30:25;5.20;;;4.72;;
6834;SDS011;3455;42.150;24.734;2022-09-09T11:33:10;8.93;;;4.78;;
6834;SDS011;3455;42.150;24.734;2022-09-09T11:36:08;4.90;;;4.32;;
6834;SDS011;3455;42.150;24.734;2022-09-09T11:38:51;5.38;;;4.07;;
6834;SDS011;3455;42.150;24.734;2022-09-09T11:41:19;5.45;;;4.95;;
6834;SDS011;3455;42.150;24.734;2022-09-09T11:43:47;4.60;;;4.20;;
6834;SDS011;3455;42.150;24.734;2022-09-09T11:46:17;6.68;;;5.60;;
6834;SDS011;3455;42.150;24.734;2022-09-09T11:48:57;5.60;;;5.15;;
6834;SDS011;3455;42.150;24.734;2022-09-09T11:51:27;5.70;;;5.30;;
6834;SDS011;3455;42.150;24.734;2022-09-09T11:53:56;7.75;;;4.43;;
6834;SDS011;3455;42.150;24.734;2022-09-09T11:56:27;4.60;;;4.30;;
6834;SDS011;3455;42.150;24.734;2022-09-09T11:58:57;6.45;;;4.50;;
6834;SDS011;3455;42.150;24.734;2022-09-09T12:01:28;5.35;;;4.93;;
6834;SDS011;3455;42.150;24.734;2022-09-09T12:06:59;4.55;;;4.15;;
6834;SDS011;3455;42.150;24.734;2022-09-09T12:09:41;5.43;;;5.00;;
6834;SDS011;3455;42.150;24.734;2022-09-09T12:12:26;7.00;;;4.20;;
6834;SDS011;3455;42.150;24.734;2022-09-09T12:17:46;17.15;;;4.72;;
6834;SDS011;3455;42.150;24.734;2022-09-09T12:20:15;4.90;;;4.45;;
6834;SDS011;3455;42.150;24.734;2022-09-09T12:25:56;5.40;;;5.00;;
6834;SDS011;3455;42.150;24.734;2022-09-09T12:28:39;10.82;;;5.00;;
6834;SDS011;3455;42.150;24.734;2022-09-09T12:31:12;5.50;;;5.00;;
6834;SDS011;3455;42.150;24.734;2022-09-09T12:33:44;9.88;;;4.65;;
6834;SDS011;3455;42.150;24.734;2022-09-09T12:36:13;5.60;;;5.28;;
6834;SDS011;3455;42.150;24.734;2022-09-09T12:38:45;5.38;;;4.70;;
6834;SDS011;3455;42.150;24.734;2022-09-09T12:41:21;5.22;;;4.93;;
6834;SDS011;3455;42.150;24.734;2022-09-09T12:43:49;5.53;;;4.75;;
6834;SDS011;3455;42.150;24.734;2022-09-09T12:46:20;6.70;;;5.28;;
6834;SDS011;3455;42.150;24.734;2022-09-09T12:48:54;25.75;;;5.72;;
6834;SDS011;3455;42.150;24.734;2022-09-09T12:51:23;6.10;;;4.43;;
6834;SDS011;3455;42.150;24.734;2022-09-09T12:53:54;5.38;;;4.70;;
6834;SDS011;3455;42.150;24.734;2022-09-09T12:56:21;7.82;;;5.25;;
6834;SDS011;3455;42.150;24.734;2022-09-09T12:58:52;8.13;;;5.07;;
6834;SDS011;3455;42.150;24.734;2022-09-09T13:01:22;5.35;;;4.93;;
6834;SDS011;3455;42.150;24.734;2022-09-09T13:03:51;5.82;;;5.18;;
6834;SDS011;3455;42.150;24.734;2022-09-09T13:06:21;5.63;;;5.22;;
6834;SDS011;3455;42.150;24.734;2022-09-09T13:08:50;6.72;;;4.90;;
6834;SDS011;3455;42.150;24.734;2022-09-09T13:11:19;5.45;;;4.65;;
6834;SDS011;3455;42.150;24.734;2022-09-09T13:13:52;5.45;;;5.00;;
6834;SDS011;3455;42.150;24.734;2022-09-09T13:16:22;5.50;;;5.10;;
6834;SDS011;3455;42.150;24.734;2022-09-09T13:18:51;5.05;;;4.60;;
6834;SDS011;3455;42.150;24.734;2022-09-09T13:21:30;37.90;;;7.05;;
6834;SDS011;3455;42.150;24.734;2022-09-09T13:23:57;5.50;;;4.97;;
6834;SDS011;3455;42.150;24.734;2022-09-09T13:26:29;5.47;;;4.93;;
6834;SDS011;3455;42.150;24.734;2022-09-09T13:29:07;5.60;;;5.10;;
6834;SDS011;3455;42.150;24.734;2022-09-09T13:31:42;10.00;;;5.25;;
6834;SDS011;3455;42.150;24.734;2022-09-09T13:34:10;6.07;;;5.57;;
6834;SDS011;3455;42.150;24.734;2022-09-09T13:36:39;5.70;;;5.20;;
6834;SDS011;3455;42.150;24.734;2022-09-09T13:39:13;9.38;;;5.03;;
6834;SDS011;3455;42.150;24.734;2022-09-09T13:41:44;7.63;;;6.57;;
6834;SDS011;3455;42.150;24.734;2022-09-09T13:44:17;10.10;;;5.93;;
6834;SDS011;3455;42.150;24.734;2022-09-09T13:46:58;6.57;;;4.93;;
6834;SDS011;3455;42.150;24.734;2022-09-09T13:49:27;8.27;;;5.82;;
6834;SDS011;3455;42.150;24.734;2022-09-09T13:52:04;5.53;;;4.95;;
6834;SDS011;3455;42.150;24.734;2022-09-09T13:54:48;5.45;;;4.90;;
6834;SDS011;3455;42.150;24.734;2022-09-09T13:57:17;6.55;;;5.82;;
6834;SDS011;3455;42.150;24.734;2022-09-09T13:59:45;8.75;;;5.60;;
6834;SDS011;3455;42.150;24.734;2022-09-09T14:02:13;7.22;;;4.55;;
6834;SDS011;3455;42.150;24.734;2022-09-09T14:04:40;7.63;;;5.47;;
6834;SDS011;3455;42.150;24.734;2022-09-09T14:07:08;5.55;;;4.93;;
6834;SDS011;3455;42.150;24.734;2022-09-09T14:09:37;5.80;;;4.80;;
6834;SDS011;3455;42.150;24.734;2022-09-09T14:12:05;9.55;;;5.47;;
6834;SDS011;3455;42.150;24.734;2022-09-09T14:14:34;9.00;;;5.47;;
6834;SDS011;3455;42.150;24.734;2022-09-09T14:17:01;5.55;;;5.13;;
6834;SDS011;3455;42.150;24.734;2022-09-09T14:19:28;9.38;;;5.95;;
6834;SDS011;3455;42.150;24.734;2022-09-09T14:21:56;9.35;;;6.28;;
6834;SDS011;3455;42.150;24.734;2022-09-09T14:24:22;9.95;;;6.55;;
6834;SDS011;3455;42.150;24.734;2022-09-09T14:26:50;7.18;;;6.70;;
6834;SDS011;3455;42.150;24.734;2022-09-09T14:29:17;11.05;;;6.82;;
6834;SDS011;3455;42.150;24.734;2022-09-09T14:31:45;8.18;;;7.07;;
6834;SDS011;3455;42.150;24.734;2022-09-09T14:34:12;7.63;;;6.93;;
6834;SDS011;3455;42.150;24.734;2022-09-09T14:36:39;10.02;;;7.40;;
6834;SDS011;3455;42.150;24.734;2022-09-09T14:39:06;7.90;;;6.72;;
6834;SDS011;3455;42.150;24.734;2022-09-09T14:41:33;11.05;;;6.97;;
6834;SDS011;3455;42.150;24.734;2022-09-09T14:44:00;11.57;;;6.47;;
6834;SDS011;3455;42.150;24.734;2022-09-09T14:46:27;9.68;;;5.47;;
6834;SDS011;3455;42.150;24.734;2022-09-09T14:48:56;8.90;;;6.20;;
6834;SDS011;3455;42.150;24.734;2022-09-09T14:51:23;9.15;;;6.35;;
6834;SDS011;3455;42.150;24.734;2022-09-09T14:53:53;10.77;;;6.40;;
6834;SDS011;3455;42.150;24.734;2022-09-09T14:56:21;10.70;;;6.47;;
6834;SDS011;3455;42.150;24.734;2022-09-09T14:58:49;7.90;;;5.75;;
6834;SDS011;3455;42.150;24.734;2022-09-09T15:01:18;8.80;;;6.55;;
6834;SDS011;3455;42.150;24.734;2022-09-09T15:03:48;9.13;;;6.72;;
6834;SDS011;3455;42.150;24.734;2022-09-09T15:06:18;8.45;;;6.80;;
6834;SDS011;3455;42.150;24.734;2022-09-09T15:08:46;9.45;;;7.78;;
6834;SDS011;3455;42.150;24.734;2022-09-09T15:11:14;8.77;;;7.55;;
6834;SDS011;3455;42.150;24.734;2022-09-09T15:13:41;8.68;;;7.13;;
6834;SDS011;3455;42.150;24.734;2022-09-09T15:16:10;7.93;;;6.78;;
6834;SDS011;3455;42.150;24.734;2022-09-09T15:18:37;16.95;;;7.03;;
6834;SDS011;3455;42.150;24.734;2022-09-09T15:21:08;11.55;;;7.13;;
6834;SDS011;3455;42.150;24.734;2022-09-09T15:23:37;11.05;;;6.80;;
6834;SDS011;3455;42.150;24.734;2022-09-09T15:26:04;9.93;;;6.32;;